Maple Plain, Minnesota
Current Conditions -  °F | °C
As of 4:34 AM on Sunday 21 Dec 2014 (Local Time) from KCFE Reporting Station
Haze Haze  
Wind Chill: 23°   Ceiling: 700
Heat Index: 32°   Visibility: 5mi
Dew Point: 30°   Wind: 12mph
Humidity: 92%   Direction: 140°SE
Pressure: 29.92"   Gusts: NA
Location:  45.01°N, 93.66°W
Report Text: KCFE 211034Z AUTO 14010KT 5SM BR OVC007 00/M01 A2992 RMK AO2 T00001011
Loading
Personal Weather Stations






























Interactive Weather Map New forecast layout! Learn more

10-Day Weather Forecast

Advertisements
Track Severe Weather on mobile